createdAt,value
2018-08-11T00:01:13.935Z,102077.98
2018-08-11T00:03:42.355Z,102084.77
2018-08-11T00:06:11.113Z,102081.55
2018-08-11T00:08:39.608Z,102081.95
2018-08-11T00:11:08.074Z,102079.95
2018-08-11T00:13:36.478Z,102081.88
2018-08-11T00:16:05.157Z,102079.23
2018-08-11T00:18:33.564Z,102073.36
2018-08-11T00:21:01.974Z,102080.50
2018-08-11T00:23:30.450Z,102077.02
2018-08-11T00:25:59.064Z,102077.70
2018-08-11T00:28:27.768Z,102076.52
2018-08-11T00:30:56.299Z,102075.77
2018-08-11T00:33:24.743Z,102071.25
2018-08-11T00:35:53.540Z,102068.33
2018-08-11T00:38:22.252Z,102071.49
2018-08-11T00:40:50.815Z,102073.33
2018-08-11T00:43:19.308Z,102077.80
2018-08-11T00:45:47.748Z,102072.77
2018-08-11T00:48:16.373Z,102069.58
2018-08-11T00:50:45.072Z,102076.44
2018-08-11T00:53:13.531Z,102072.30
2018-08-11T00:55:41.994Z,102083.34
2018-08-11T00:58:10.483Z,102078.63
2018-08-11T01:00:39.138Z,102078.39
2018-08-11T01:03:07.698Z,102078.39
2018-08-11T01:05:36.113Z,102080.44
2018-08-11T01:08:04.882Z,102080.83
2018-08-11T01:10:33.311Z,102080.80
2018-08-11T01:13:01.505Z,102084.50
2018-08-11T01:15:30.058Z,102078.63
2018-08-11T01:17:58.436Z,102082.92
2018-08-11T01:20:26.909Z,102081.19
2018-08-11T01:22:55.391Z,102072.48
2018-08-11T01:25:23.836Z,102082.83
2018-08-11T01:27:52.579Z,102080.70
2018-08-11T01:30:21.815Z,102075.70
2018-08-11T01:32:50.318Z,102072.89
2018-08-11T01:35:18.936Z,102082.77
2018-08-11T01:37:47.630Z,102083.00
2018-08-11T01:40:16.771Z,102083.27
2018-08-11T01:42:46.372Z,102081.12
2018-08-11T01:45:15.500Z,102076.27
2018-08-11T01:47:44.231Z,102081.52
2018-08-11T01:50:14.260Z,102086.23
2018-08-11T01:52:43.913Z,102081.55
2018-08-11T01:55:14.280Z,102084.84
2018-08-11T01:57:42.831Z,102087.20
2018-08-11T02:00:13.228Z,102089.68
2018-08-11T02:02:41.807Z,102082.03
2018-08-11T02:05:10.959Z,102087.86
2018-08-11T02:07:40.669Z,102089.32
2018-08-11T02:10:15.166Z,102089.44
2018-08-11T02:12:43.951Z,102096.61
2018-08-11T02:15:13.283Z,102095.70
2018-08-11T02:17:42.016Z,102101.21
2018-08-11T02:20:13.831Z,102090.16
2018-08-11T02:22:43.891Z,102097.59
2018-08-11T02:25:12.545Z,102093.79
2018-08-11T02:27:40.894Z,102102.48
2018-08-11T02:30:12.503Z,102097.31
2018-08-11T02:32:41.113Z,102094.93
2018-08-11T02:35:10.891Z,102099.53
2018-08-11T02:37:39.712Z,102107.30
2018-08-11T02:40:10.954Z,102098.41
2018-08-11T02:42:39.382Z,102096.34
2018-08-11T02:45:10.403Z,102098.71
2018-08-11T02:47:38.783Z,102103.00
2018-08-11T02:50:09.335Z,102100.22
2018-08-11T02:52:38.231Z,102110.73
2018-08-11T02:55:06.891Z,102105.47
2018-08-11T02:57:35.513Z,102110.91
2018-08-11T03:00:05.158Z,102112.86
2018-08-11T03:02:33.782Z,102114.53
2018-08-11T03:05:02.352Z,102116.66
2018-08-11T03:07:30.703Z,102121.67
2018-08-11T03:09:59.033Z,102115.18
2018-08-11T03:12:27.727Z,102119.03
2018-08-11T03:14:56.122Z,102120.20
2018-08-11T03:17:24.787Z,102123.84
2018-08-11T03:19:53.255Z,102130.60
2018-08-11T03:22:21.663Z,102129.67
2018-08-11T03:24:50.063Z,102132.31
2018-08-11T03:27:18.571Z,102127.37
2018-08-11T03:29:46.996Z,102136.48
2018-08-11T03:32:15.400Z,102133.44
2018-08-11T03:34:43.720Z,102131.64
2018-08-11T03:37:12.067Z,102133.92
2018-08-11T03:39:40.499Z,102140.59
2018-08-11T03:42:08.569Z,102139.14
2018-08-11T03:44:36.658Z,102143.82
2018-08-11T03:47:05.133Z,102151.64
2018-08-11T03:49:33.748Z,102151.64
2018-08-11T03:52:02.141Z,102156.00
2018-08-11T03:54:30.661Z,102156.55
2018-08-11T03:56:58.718Z,102151.03
2018-08-11T03:59:27.365Z,102159.36
2018-08-11T04:01:55.744Z,102156.63
2018-08-11T04:04:24.110Z,102162.73
2018-08-11T04:06:52.882Z,102163.64
2018-08-11T04:09:21.463Z,102164.52
2018-08-11T04:11:49.880Z,102165.98
2018-08-11T04:14:18.527Z,102166.17
2018-08-11T04:16:47.107Z,102176.95
2018-08-11T04:19:15.583Z,102169.50
2018-08-11T04:21:44.175Z,102175.23
2018-08-11T04:24:12.562Z,102173.92
2018-08-11T04:26:40.651Z,102179.30
2018-08-11T04:29:09.590Z,102192.27
2018-08-11T04:31:38.179Z,102193.84
2018-08-11T04:34:07.035Z,102196.08
2018-08-11T04:36:35.493Z,102199.88
2018-08-11T04:39:06.643Z,102205.17
2018-08-11T04:41:35.107Z,102197.79
2018-08-11T04:44:03.624Z,102195.38
2018-08-11T04:46:32.004Z,102199.63
2018-08-11T04:49:00.523Z,102193.05
2018-08-11T04:51:28.896Z,102195.64
2018-08-11T04:53:57.421Z,102199.95
2018-08-11T04:56:25.796Z,102201.41
2018-08-11T04:58:54.199Z,102199.59
2018-08-11T05:01:22.807Z,102204.34
2018-08-11T05:03:51.494Z,102206.83
2018-08-11T05:06:19.826Z,102209.98
2018-08-11T05:08:48.222Z,102210.05
2018-08-11T05:11:16.668Z,102211.91
2018-08-11T05:13:45.034Z,102212.58
2018-08-11T05:16:13.399Z,102218.42
2018-08-11T05:18:41.827Z,102223.03
2018-08-11T05:21:10.519Z,102229.09
2018-08-11T05:23:39.013Z,102225.05
2018-08-11T05:26:07.432Z,102227.68
2018-08-11T05:28:35.920Z,102225.19
2018-08-11T05:31:04.449Z,102234.08
2018-08-11T05:33:33.060Z,102240.78
2018-08-11T05:36:01.428Z,102241.39
2018-08-11T05:38:29.992Z,102241.83
2018-08-11T05:40:58.587Z,102245.75
2018-08-11T05:43:30.913Z,102253.01
2018-08-11T05:45:59.423Z,102249.27
2018-08-11T05:48:28.037Z,102248.84
2018-08-11T05:50:56.494Z,102261.91
2018-08-11T05:53:24.854Z,102267.07
2018-08-11T05:55:53.560Z,102261.26
2018-08-11T05:58:22.114Z,102267.60
2018-08-11T06:00:50.493Z,102273.43
2018-08-11T06:03:19.183Z,102274.61
2018-08-11T06:05:47.935Z,102277.97
2018-08-11T06:08:16.343Z,102275.20
2018-08-11T06:10:44.915Z,102281.72
2018-08-11T06:13:13.263Z,102284.13
2018-08-11T06:15:41.734Z,102281.05
2018-08-11T06:18:10.140Z,102289.40
2018-08-11T06:20:38.545Z,102281.34
2018-08-11T06:23:07.143Z,102288.84
2018-08-11T06:25:35.615Z,102285.41
2018-08-11T06:28:04.299Z,102285.80
2018-08-11T06:30:32.682Z,102291.92
2018-08-11T06:33:01.115Z,102292.05
2018-08-11T06:35:29.560Z,102295.70
2018-08-11T06:37:57.905Z,102299.00
2018-08-11T06:40:26.268Z,102313.52
2018-08-11T06:42:54.817Z,102300.39
2018-08-11T06:45:23.207Z,102294.77
2018-08-11T06:47:51.534Z,102308.95
2018-08-11T06:50:20.271Z,102294.09
2018-08-11T06:52:48.878Z,102302.83
2018-08-11T06:55:17.242Z,102305.03
2018-08-11T06:57:45.941Z,102305.23
2018-08-11T07:00:14.251Z,102305.88
2018-08-11T07:02:42.603Z,102315.95
2018-08-11T07:05:11.173Z,102315.44
2018-08-11T07:07:39.560Z,102319.06
2018-08-11T07:10:08.051Z,102326.40
2018-08-11T07:12:36.804Z,102317.27
2018-08-11T07:15:05.648Z,102322.19
2018-08-11T07:17:34.182Z,102323.19
2018-08-11T07:20:02.715Z,102326.94
2018-08-11T07:22:31.260Z,102326.78
2018-08-11T07:24:59.867Z,102331.29
2018-08-11T07:27:28.287Z,102334.45
2018-08-11T07:29:56.911Z,102341.06
2018-08-11T07:32:25.289Z,102333.77
2018-08-11T07:34:53.750Z,102340.85
2018-08-11T07:37:22.228Z,102338.48
2018-08-11T07:39:50.865Z,102333.03
2018-08-11T07:42:19.219Z,102331.61
2018-08-11T07:44:47.668Z,102335.73
2018-08-11T07:47:16.157Z,102327.03
2018-08-11T07:49:44.837Z,102329.10
2018-08-11T07:52:13.265Z,102340.16
2018-08-11T07:54:41.666Z,102336.50
2018-08-11T07:57:10.067Z,102337.28
2018-08-11T07:59:38.422Z,102345.33
2018-08-11T08:02:06.981Z,102338.85
2018-08-11T08:04:35.626Z,102344.68
2018-08-11T08:07:04.449Z,102339.83
2018-08-11T08:09:33.116Z,102342.48
2018-08-11T08:12:01.770Z,102342.29
2018-08-11T08:14:30.441Z,102354.64
2018-08-11T08:16:59.067Z,102344.01
2018-08-11T08:19:27.882Z,102334.83
2018-08-11T08:21:56.282Z,102335.73
2018-08-11T08:24:24.752Z,102340.98
2018-08-11T08:26:53.198Z,102337.97
2018-08-11T08:29:21.548Z,102340.50
2018-08-11T08:31:49.986Z,102336.21
2018-08-11T08:34:18.489Z,102335.25
2018-08-11T08:36:46.929Z,102336.78
2018-08-11T08:39:15.389Z,102344.81
2018-08-11T08:41:43.771Z,102346.39
2018-08-11T08:44:12.256Z,102347.88
2018-08-11T08:46:40.754Z,102366.82
2018-08-11T08:49:09.208Z,102356.39
2018-08-11T08:51:37.849Z,102351.33
2018-08-11T08:54:06.272Z,102357.59
2018-08-11T08:56:34.704Z,102353.08
2018-08-11T08:59:03.562Z,102356.44
2018-08-11T09:01:31.982Z,102348.45
2018-08-11T09:04:00.622Z,102341.23
2018-08-11T09:06:29.273Z,102348.58
2018-08-11T09:08:57.664Z,102353.32
2018-08-11T09:11:26.381Z,102352.23
2018-08-11T09:13:55.059Z,102354.78
2018-08-11T09:16:23.685Z,102345.69
2018-08-11T09:18:52.427Z,102359.39
2018-08-11T09:21:20.774Z,102356.63
2018-08-11T09:23:49.109Z,102350.98
2018-08-11T09:26:17.578Z,102354.44
2018-08-11T09:28:45.947Z,102363.30
2018-08-11T09:31:14.435Z,102371.02
2018-08-11T09:33:42.995Z,102363.00
2018-08-11T09:36:11.570Z,102360.73
2018-08-11T09:38:40.260Z,102367.38
2018-08-11T09:41:08.890Z,102371.88
2018-08-11T09:43:37.282Z,102373.38
2018-08-11T09:46:06.019Z,102377.95
2018-08-11T09:48:34.635Z,102376.83
2018-08-11T09:51:03.049Z,102375.53
2018-08-11T09:53:31.362Z,102381.88
2018-08-11T09:55:59.688Z,102383.34
2018-08-11T09:58:28.325Z,102381.28
2018-08-11T10:01:01.405Z,102376.94
2018-08-11T10:03:29.882Z,102374.98
2018-08-11T10:05:58.268Z,102377.91
2018-08-11T10:08:26.714Z,102374.45
2018-08-11T10:10:55.086Z,102376.73
2018-08-11T10:13:23.429Z,102367.36
2018-08-11T10:15:51.822Z,102373.09
2018-08-11T10:18:20.205Z,102374.19
2018-08-11T10:20:48.931Z,102372.02
2018-08-11T10:23:17.477Z,102376.27
2018-08-11T10:25:46.291Z,102368.79
2018-08-11T10:28:14.685Z,102372.61
2018-08-11T10:30:43.368Z,102372.59
2018-08-11T10:33:11.725Z,102375.65
2018-08-11T10:35:39.861Z,102379.44
2018-08-11T10:38:08.333Z,102378.44
2018-08-11T10:40:36.877Z,102378.07
2018-08-11T10:43:05.407Z,102374.05
2018-08-11T10:45:33.892Z,102378.20
2018-08-11T10:48:02.552Z,102376.58
2018-08-11T10:50:30.986Z,102383.28
2018-08-11T10:52:59.373Z,102380.28
2018-08-11T10:55:27.767Z,102374.41
2018-08-11T10:57:56.423Z,102378.45
2018-08-11T11:00:24.981Z,102373.38
2018-08-11T11:02:53.352Z,102370.55
2018-08-11T11:05:21.770Z,102372.48
2018-08-11T11:07:50.210Z,102364.97
2018-08-11T11:10:18.868Z,102356.70
2018-08-11T11:12:48.724Z,102363.27
2018-08-11T11:15:17.591Z,102373.50
2018-08-11T11:17:46.212Z,102372.79
2018-08-11T11:20:14.780Z,102373.02
2018-08-11T11:22:45.929Z,102366.00
2018-08-11T11:25:16.115Z,102380.20
2018-08-11T11:27:44.608Z,102370.34
2018-08-11T11:30:14.959Z,102365.97
2018-08-11T11:32:43.779Z,102354.10
2018-08-11T11:35:12.357Z,102364.74
2018-08-11T11:37:41.116Z,102374.08
2018-08-11T11:40:11.104Z,102373.38
2018-08-11T11:42:39.793Z,102375.44
2018-08-11T11:45:08.486Z,102377.98
2018-08-11T11:47:37.327Z,102365.38
2018-08-11T11:50:07.547Z,102372.14
2018-08-11T11:52:37.231Z,102368.67
2018-08-11T11:55:05.904Z,102364.41
2018-08-11T11:57:34.468Z,102362.69
2018-08-11T12:00:04.189Z,102364.25
2018-08-11T12:02:33.099Z,102367.25
2018-08-11T12:05:05.084Z,102368.33
2018-08-11T12:07:33.761Z,102360.99
2018-08-11T12:10:03.459Z,102357.23
2018-08-11T12:12:32.212Z,102361.98
2018-08-11T12:15:01.657Z,102360.18
2018-08-11T12:17:32.738Z,102356.70
2018-08-11T12:20:02.248Z,102360.41
2018-08-11T12:22:34.246Z,102364.12
2018-08-11T12:25:05.338Z,102370.81
2018-08-11T12:27:34.205Z,102355.81
2018-08-11T12:30:02.919Z,102360.50
2018-08-11T12:32:31.811Z,102351.87
2018-08-11T12:35:00.581Z,102354.41
2018-08-11T12:37:29.776Z,102362.92
2018-08-11T12:42:33.714Z,102368.84
2018-08-11T12:45:02.306Z,102369.81
2018-08-11T12:47:31.120Z,102374.34
2018-08-11T12:50:01.034Z,102360.61
2018-08-11T12:52:29.942Z,102370.47
2018-08-11T12:54:59.991Z,102379.14
2018-08-11T12:57:28.679Z,102378.06
2018-08-11T12:59:57.956Z,102378.18
2018-08-11T13:02:27.203Z,102371.88
2018-08-11T13:04:58.267Z,102366.36
2018-08-11T13:07:28.399Z,102365.29
2018-08-11T13:09:57.705Z,102374.80
2018-08-11T13:12:28.316Z,102367.31
2018-08-11T13:14:58.517Z,102371.65
2018-08-11T13:17:27.924Z,102370.42
2018-08-11T13:19:58.882Z,102356.41
2018-08-11T13:22:27.639Z,102365.00
2018-08-11T13:24:57.357Z,102372.02
2018-08-11T13:27:26.447Z,102364.95
2018-08-11T13:29:55.690Z,102366.94
2018-08-11T13:32:24.998Z,102363.62
2018-08-11T13:34:54.503Z,102365.53
2018-08-11T13:37:26.016Z,102366.80
2018-08-11T13:39:57.735Z,102363.50
2018-08-11T13:42:26.993Z,102360.05
2018-08-11T13:44:56.839Z,102369.62
2018-08-11T13:47:25.378Z,102366.05
2018-08-11T13:49:54.792Z,102360.21
2018-08-11T13:52:24.016Z,102367.83
2018-08-11T13:54:52.744Z,102366.45
2018-08-11T13:57:21.643Z,102358.06
2018-08-11T13:59:50.807Z,102356.25
2018-08-11T14:02:20.098Z,102366.44
2018-08-11T14:04:50.217Z,102355.60
2018-08-11T14:07:20.016Z,102363.75
2018-08-11T14:09:49.120Z,102356.56
2018-08-11T14:12:17.934Z,102359.03
2018-08-11T14:14:46.788Z,102356.23
2018-08-11T14:17:16.516Z,102347.75
2018-08-11T14:19:45.001Z,102358.67
2018-08-11T14:22:13.904Z,102347.16
2018-08-11T14:24:43.716Z,102348.09
2018-08-11T14:29:50.236Z,102359.03
2018-08-11T14:32:20.647Z,102348.31
2018-08-11T14:34:52.004Z,102355.14
2018-08-11T14:37:24.585Z,102359.16
2018-08-11T14:39:53.602Z,102342.64
2018-08-11T14:42:22.400Z,102346.30
2018-08-11T14:44:51.333Z,102351.39
2018-08-11T14:47:21.031Z,102349.06
2018-08-11T14:49:49.803Z,102339.23
2018-08-11T14:52:18.348Z,102331.37
2018-08-11T14:54:47.033Z,102329.02
2018-08-11T14:57:15.746Z,102332.94
2018-08-11T14:59:44.824Z,102325.14
2018-08-11T15:02:13.806Z,102322.87
2018-08-11T15:04:46.780Z,102328.06
2018-08-11T15:07:16.132Z,102332.69
2018-08-11T15:09:45.337Z,102331.21
2018-08-11T15:12:14.620Z,102336.33
2018-08-11T15:14:43.465Z,102331.59
2018-08-11T15:17:12.202Z,102331.59
2018-08-11T15:19:42.583Z,102324.29
2018-08-11T15:22:12.212Z,102328.69
2018-08-11T15:24:41.756Z,102329.06
2018-08-11T15:27:10.743Z,102320.06
2018-08-11T15:29:39.555Z,102321.53
2018-08-11T15:32:08.289Z,102329.05
2018-08-11T15:34:36.872Z,102326.97
2018-08-11T15:37:05.464Z,102314.34
2018-08-11T15:39:35.123Z,102313.84
2018-08-11T15:42:03.906Z,102309.76
2018-08-11T15:44:32.712Z,102314.95
2018-08-11T15:47:01.812Z,102316.42
2018-08-11T15:49:30.713Z,102318.61
2018-08-11T15:52:00.364Z,102328.91
2018-08-11T15:54:30.361Z,102323.95
2018-08-11T15:57:00.099Z,102319.08
2018-08-11T15:59:28.679Z,102311.31
2018-08-11T16:01:58.400Z,102313.97
2018-08-11T16:04:27.167Z,102318.33
2018-08-11T16:06:56.051Z,102314.94
2018-08-11T16:09:24.917Z,102317.25
2018-08-11T16:11:53.542Z,102319.73
2018-08-11T16:14:23.258Z,102319.90
2018-08-11T16:16:52.462Z,102316.16
2018-08-11T16:19:23.897Z,102319.02
2018-08-11T16:21:53.891Z,102318.66
2018-08-11T16:24:22.576Z,102316.56
2018-08-11T16:26:51.320Z,102317.61
2018-08-11T16:29:21.105Z,102323.70
2018-08-11T16:31:49.701Z,102318.23
2018-08-11T16:34:18.906Z,102321.19
2018-08-11T16:36:48.969Z,102318.97
2018-08-11T16:39:18.138Z,102312.48
2018-08-11T16:41:47.494Z,102320.44
2018-08-11T16:44:16.935Z,102319.09
2018-08-11T16:46:45.538Z,102319.98
2018-08-11T16:49:14.480Z,102313.30
2018-08-11T16:51:46.389Z,102313.50
2018-08-11T16:54:15.187Z,102307.22
2018-08-11T16:56:44.078Z,102310.00
2018-08-11T16:59:13.632Z,102310.20
2018-08-11T17:01:42.493Z,102308.39
2018-08-11T17:04:12.070Z,102305.38
2018-08-11T17:06:41.345Z,102305.23
2018-08-11T17:09:10.960Z,102303.17
2018-08-11T17:11:40.789Z,102303.58
2018-08-11T17:14:09.623Z,102293.61
2018-08-11T17:16:38.239Z,102293.30
2018-08-11T17:19:08.031Z,102291.64
2018-08-11T17:21:38.940Z,102289.48
2018-08-11T17:24:09.303Z,102280.33
2018-08-11T17:26:39.984Z,102282.69
2018-08-11T17:29:10.299Z,102283.68
2018-08-11T17:31:43.046Z,102283.20
2018-08-11T17:34:12.779Z,102287.55
2018-08-11T17:36:41.765Z,102281.50
2018-08-11T17:39:11.673Z,102279.06
2018-08-11T17:41:44.183Z,102275.64
2018-08-11T17:44:14.343Z,102272.45
2018-08-11T17:46:43.094Z,102273.69
2018-08-11T17:49:14.127Z,102273.24
2018-08-11T17:51:44.035Z,102275.22
2018-08-11T17:54:14.188Z,102268.27
2018-08-11T17:56:43.227Z,102275.27
2018-08-11T17:59:12.023Z,102263.55
2018-08-11T18:01:42.072Z,102268.11
2018-08-11T18:04:11.515Z,102260.33
2018-08-11T18:06:40.949Z,102268.16
2018-08-11T18:09:11.682Z,102261.31
2018-08-11T18:11:41.399Z,102258.45
2018-08-11T18:14:11.249Z,102259.49
2018-08-11T18:16:41.557Z,102259.61
2018-08-11T18:19:10.340Z,102258.39
2018-08-11T18:21:39.784Z,102256.63
2018-08-11T18:24:10.660Z,102249.50
2018-08-11T18:26:41.011Z,102248.03
2018-08-11T18:29:11.847Z,102258.09
2018-08-11T18:34:16.283Z,102257.48
2018-08-11T18:36:45.783Z,102255.66
2018-08-11T18:39:14.842Z,102255.48
2018-08-11T18:41:45.007Z,102256.34
2018-08-11T18:44:15.178Z,102255.02
2018-08-11T18:46:46.565Z,102256.19
2018-08-11T18:49:15.322Z,102254.47
2018-08-11T18:51:45.264Z,102254.09
2018-08-11T18:54:14.502Z,102257.39
2018-08-11T18:56:43.902Z,102254.55
2018-08-11T18:59:12.676Z,102253.20
2018-08-11T19:01:41.471Z,102245.00
2018-08-11T19:04:10.932Z,102245.83
2018-08-11T19:06:43.753Z,102249.38
2018-08-11T19:09:14.191Z,102249.60
2018-08-11T19:11:45.230Z,102243.48
2018-08-11T19:14:16.035Z,102246.99
2018-08-11T19:16:46.716Z,102245.92
2018-08-11T19:19:17.204Z,102244.62
2018-08-11T19:21:47.324Z,102243.81
2018-08-11T19:24:16.414Z,102247.98
2018-08-11T19:26:46.954Z,102242.32
2018-08-11T19:29:18.008Z,102247.66
2018-08-11T19:31:47.274Z,102238.75
2018-08-11T19:34:16.332Z,102239.24
2018-08-11T19:36:44.998Z,102232.00
2018-08-11T19:39:13.805Z,102238.66
2018-08-11T19:41:42.672Z,102241.20
2018-08-11T19:44:11.668Z,102238.27
2018-08-11T19:46:41.416Z,102228.22
2018-08-11T19:49:12.315Z,102237.30
2018-08-11T19:51:43.009Z,102241.87
2018-08-11T19:54:12.810Z,102241.19
2018-08-11T19:56:43.611Z,102231.13
2018-08-11T19:59:13.943Z,102240.85
2018-08-11T20:01:43.387Z,102236.72
2018-08-11T20:04:14.790Z,102233.68
2018-08-11T20:06:45.407Z,102232.70
2018-08-11T20:09:16.009Z,102227.91
2018-08-11T20:11:52.732Z,102226.22
2018-08-11T20:14:22.114Z,102221.56
2018-08-11T20:16:51.867Z,102216.90
2018-08-11T20:19:22.089Z,102215.56
2018-08-11T20:24:25.472Z,102207.81
2018-08-11T20:26:55.110Z,102210.81
2018-08-11T20:29:24.078Z,102205.38
2018-08-11T20:31:54.499Z,102205.48
2018-08-11T20:34:23.552Z,102202.26
2018-08-11T20:36:53.304Z,102208.98
2018-08-11T20:39:22.920Z,102204.95
2018-08-11T20:41:52.171Z,102212.71
2018-08-11T20:44:21.820Z,102208.34
2018-08-11T20:46:52.243Z,102208.53
2018-08-11T20:49:21.195Z,102210.49
2018-08-11T20:51:50.497Z,102209.54
2018-08-11T20:54:21.066Z,102208.03
2018-08-11T20:56:51.090Z,102198.56
2018-08-11T20:59:20.903Z,102200.80
2018-08-11T21:01:50.606Z,102200.00
2018-08-11T21:04:19.664Z,102199.25
2018-08-11T21:06:48.860Z,102197.14
2018-08-11T21:09:17.871Z,102194.38
2018-08-11T21:11:46.845Z,102195.49
2018-08-11T21:14:16.987Z,102190.34
2018-08-11T21:16:45.909Z,102190.80
2018-08-11T21:19:14.913Z,102190.89
2018-08-11T21:21:46.051Z,102185.30
2018-08-11T21:24:15.205Z,102185.57
2018-08-11T21:26:44.775Z,102181.18
2018-08-11T21:29:13.750Z,102177.75
2018-08-11T21:31:42.708Z,102112.36
2018-08-11T21:34:12.167Z,102177.61
2018-08-11T21:36:42.262Z,102172.94
2018-08-11T21:39:15.594Z,102172.19
2018-08-11T21:41:45.852Z,102171.32
2018-08-11T21:44:14.910Z,102170.38
2018-08-11T21:46:43.990Z,102160.67
2018-08-11T21:49:13.463Z,102166.29
2018-08-11T21:51:49.427Z,102166.07
2018-08-11T21:54:18.569Z,102167.09
2018-08-11T21:56:47.660Z,102167.80
2018-08-11T21:59:17.736Z,102155.91
2018-08-11T22:01:48.193Z,102156.44
2018-08-11T22:04:18.346Z,102157.09
2018-08-11T22:06:47.796Z,102088.84
2018-08-11T22:09:16.800Z,102152.34
2018-08-11T22:11:45.525Z,102145.65
2018-08-11T22:14:14.557Z,102142.57
2018-08-11T22:16:43.596Z,102147.38
2018-08-11T22:19:12.780Z,102143.76
2018-08-11T22:21:41.723Z,102140.95
2018-08-11T22:24:10.687Z,102140.50
2018-08-11T22:26:39.635Z,102137.64
2018-08-11T22:29:09.212Z,102140.59
2018-08-11T22:31:39.851Z,102139.72
2018-08-11T22:34:09.171Z,102142.62
2018-08-11T22:36:39.861Z,102139.64
2018-08-11T22:39:10.674Z,102139.98
2018-08-11T22:41:39.955Z,102142.62
2018-08-11T22:44:09.557Z,102135.70
2018-08-11T22:46:39.031Z,102136.86
2018-08-11T22:49:09.099Z,102135.63
2018-08-11T22:51:38.803Z,102126.13
2018-08-11T22:54:13.387Z,102126.60
2018-08-11T22:56:42.425Z,102120.92
2018-08-11T22:59:13.463Z,102116.88
2018-08-11T23:01:42.420Z,102114.70
2018-08-11T23:04:11.225Z,102113.00
2018-08-11T23:06:40.939Z,102109.82
2018-08-11T23:09:10.095Z,102109.82
2018-08-11T23:11:40.801Z,102105.55
2018-08-11T23:14:09.699Z,102099.62
2018-08-11T23:16:40.393Z,102100.59
2018-08-11T23:19:12.058Z,102100.98
2018-08-11T23:21:41.754Z,102095.79
2018-08-11T23:24:14.779Z,102088.84
2018-08-11T23:26:44.585Z,102089.53
2018-08-11T23:29:14.949Z,102086.42
2018-08-11T23:31:44.847Z,102088.84
2018-08-11T23:34:16.552Z,102084.70
2018-08-11T23:36:46.476Z,102078.19
2018-08-11T23:39:15.645Z,102077.17
2018-08-11T23:41:45.519Z,102021.38
2018-08-11T23:44:15.337Z,102067.85
2018-08-11T23:46:45.271Z,102064.23
2018-08-11T23:49:15.194Z,102068.02
2018-08-11T23:51:44.807Z,102066.53
2018-08-11T23:54:15.245Z,102063.75
2018-08-11T23:56:44.712Z,102063.23
2018-08-11T23:59:16.124Z,102030.47
